Time;durP1;ratioP1;P1;durP2;ratioP2;P2;SDS_P1;SDS_P2;PMS_P1;PMS_P2;Temp;Humidity;BMP_temperature;BMP_pressure;BME280_temperature;BME280_humidity;BME280_pressure;Samples;Min_cycle;Max_cycle;Signal;HPM_P1;HPM_P2
2023/03/25 00:00:05;;;;;;;8.40;2.35;;;10.80;72.30;;;;;;5054075;28;20555;-80
2023/03/25 00:02:33;;;;;;;9.98;2.00;;;10.80;72.20;;;;;;4982189;28;20122;-81
2023/03/25 00:04:59;;;;;;;14.60;2.63;;;10.80;72.10;;;;;;4937441;28;20051;-81
2023/03/25 00:07:25;;;;;;;12.63;2.97;;;10.80;72.10;;;;;;4937116;28;20065;-80
2023/03/25 00:09:51;;;;;;;17.17;2.60;;;10.80;72.10;;;;;;4937883;28;20049;-81
2023/03/25 00:12:17;;;;;;;11.15;2.38;;;10.80;72.10;;;;;;4940331;28;20039;-80
2023/03/25 00:14:52;;;;;;;13.68;2.55;;;10.80;72.10;;;;;;4940282;28;20064;-80
2023/03/25 00:17:22;;;;;;;10.30;2.30;;;10.80;72.20;;;;;;4941280;28;20039;-81
2023/03/25 00:19:50;;;;;;;10.43;2.20;;;10.80;72.70;;;;;;4956405;28;20039;-79
2023/03/25 00:22:19;;;;;;;10.88;1.92;;;10.70;73.20;;;;;;4994873;28;20035;-80
2023/03/25 00:24:45;;;;;;;9.80;1.95;;;10.80;74.20;;;;;;4945225;28;20046;-80
2023/03/25 00:27:13;;;;;;;10.05;2.00;;;10.70;74.60;;;;;;4962063;28;20047;-80
2023/03/25 00:29:40;;;;;;;12.18;3.22;;;10.70;75.00;;;;;;5043748;28;20043;-80
2023/03/25 00:32:06;;;;;;;12.68;2.25;;;10.70;75.60;;;;;;4939625;28;20035;-80
2023/03/25 00:34:34;;;;;;;14.40;2.45;;;10.60;75.70;;;;;;4956220;28;20061;-81
2023/03/25 00:37:03;;;;;;;16.45;3.13;;;10.60;76.30;;;;;;4940848;28;20043;-81
2023/03/25 00:39:29;;;;;;;14.23;2.70;;;10.50;76.70;;;;;;4940331;28;20038;-81
2023/03/25 00:41:56;;;;;;;16.08;2.83;;;10.50;77.00;;;;;;4956785;28;20500;-81
2023/03/25 00:44:22;;;;;;;7.18;1.92;;;10.50;77.30;;;;;;4939770;28;20084;-81
2023/03/25 00:46:47;;;;;;;12.38;2.88;;;10.40;77.40;;;;;;4955648;28;20394;-81
2023/03/25 00:49:13;;;;;;;16.05;2.45;;;10.40;77.90;;;;;;4955054;28;20120;-80
2023/03/25 00:51:39;;;;;;;11.15;2.38;;;10.40;77.90;;;;;;4971463;28;20046;-81
2023/03/25 00:54:05;;;;;;;10.52;2.53;;;10.40;78.20;;;;;;4954961;28;20085;-80
2023/03/25 00:56:30;;;;;;;17.63;3.53;;;10.30;78.30;;;;;;4940249;28;20092;-81
2023/03/25 00:58:56;;;;;;;11.52;2.42;;;10.30;78.60;;;;;;4971846;28;20142;-81
2023/03/25 01:01:26;;;;;;;13.18;2.78;;;10.20;78.80;;;;;;5056977;28;20054;-81
2023/03/25 01:03:59;;;;;;;11.35;2.78;;;10.20;79.10;;;;;;4983489;28;20042;-81
2023/03/25 01:06:31;;;;;;;7.18;1.80;;;10.20;79.20;;;;;;4959881;28;20046;-81
2023/03/25 01:08:59;;;;;;;9.40;2.65;;;10.20;79.60;;;;;;4974676;28;20036;-81
2023/03/25 01:11:28;;;;;;;15.55;2.97;;;10.10;79.90;;;;;;5060533;28;20559;-81
2023/03/25 01:13:55;;;;;;;11.40;2.30;;;10.10;80.00;;;;;;4991381;28;20045;-81
2023/03/25 01:16:22;;;;;;;12.65;2.08;;;10.10;80.00;;;;;;5060039;28;20044;-81
2023/03/25 01:18:48;;;;;;;8.25;2.53;;;10.00;80.00;;;;;;4974879;28;20397;-81
2023/03/25 01:21:14;;;;;;;14.52;2.70;;;10.00;80.50;;;;;;4958019;28;20519;-81
2023/03/25 01:23:40;;;;;;;15.05;3.20;;;10.00;80.60;;;;;;4975251;28;20129;-81
2023/03/25 01:26:07;;;;;;;12.68;3.70;;;10.00;80.70;;;;;;4958788;28;20046;-81
2023/03/25 01:28:32;;;;;;;13.40;3.45;;;9.90;80.80;;;;;;4958272;28;20042;-77
2023/03/25 01:31:07;;;;;;;15.40;2.63;;;9.90;80.80;;;;;;4939404;28;20039;-78
2023/03/25 01:33:33;;;;;;;12.77;3.63;;;9.90;80.70;;;;;;4959118;28;20081;-77
2023/03/25 01:35:59;;;;;;;14.85;2.97;;;9.90;80.60;;;;;;5049033;28;20068;-77
2023/03/25 01:38:26;;;;;;;16.73;2.42;;;9.90;80.60;;;;;;4970689;28;20061;-78
2023/03/25 01:40:52;;;;;;;12.70;2.67;;;9.80;80.60;;;;;;4970537;28;20038;-78
2023/03/25 01:43:19;;;;;;;13.85;3.47;;;9.90;80.60;;;;;;4938711;28;20047;-77
2023/03/25 01:45:45;;;;;;;12.75;3.00;;;9.80;80.80;;;;;;4995486;28;20039;-78
2023/03/25 01:48:36;;;;;;;16.02;3.40;;;9.80;80.70;;;;;;4954495;28;20043;-78
2023/03/25 01:51:10;;;;;;;17.55;2.67;;;9.80;80.70;;;;;;4972698;28;20129;-78
2023/03/25 01:53:36;;;;;;;18.02;3.15;;;9.80;80.70;;;;;;4986594;28;20362;-79
2023/03/25 01:56:06;;;;;;;13.27;2.75;;;9.80;80.70;;;;;;4937985;28;20043;-78
2023/03/25 01:58:34;;;;;;;19.23;3.35;;;9.80;80.70;;;;;;4964799;28;20137;-79
2023/03/25 02:01:01;;;;;;;18.88;3.22;;;9.80;80.80;;;;;;4974074;28;20054;-78
2023/03/25 02:03:27;;;;;;;17.63;3.13;;;9.80;80.90;;;;;;5030777;28;20084;-78
2023/03/25 02:06:02;;;;;;;15.65;3.58;;;9.80;81.00;;;;;;4938142;28;20478;-78
2023/03/25 02:08:31;;;;;;;18.42;4.20;;;9.80;81.00;;;;;;4969818;28;20042;-78
2023/03/25 02:10:57;;;;;;;15.95;2.90;;;9.80;81.00;;;;;;4953906;28;20043;-78
2023/03/25 02:13:24;;;;;;;19.73;3.35;;;9.80;81.00;;;;;;4955044;28;20375;-78
2023/03/25 02:15:50;;;;;;;24.60;4.15;;;9.80;80.90;;;;;;5022450;28;20045;-78
2023/03/25 02:18:25;;;;;;;22.05;3.47;;;9.80;81.00;;;;;;5055301;28;20129;-78
2023/03/25 02:21:24;;;;;;;17.75;3.47;;;9.80;81.00;;;;;;4953684;28;20138;-77
2023/03/25 02:23:56;;;;;;;21.88;3.53;;;9.80;80.90;;;;;;4969032;28;20044;-78
2023/03/25 02:26:54;;;;;;;18.23;3.92;;;9.80;81.00;;;;;;5064852;28;20119;-78
2023/03/25 02:29:54;;;;;;;13.63;3.28;;;9.80;81.10;;;;;;4942784;28;20139;-78
2023/03/25 02:32:49;;;;;;;11.38;3.00;;;9.80;81.00;;;;;;5056941;28;20395;-78
2023/03/25 02:35:23;;;;;;;17.45;3.40;;;9.80;81.00;;;;;;4985926;28;20042;-78
2023/03/25 02:37:52;;;;;;;13.82;2.75;;;9.80;81.10;;;;;;5054203;28;20046;-78
2023/03/25 02:40:28;;;;;;;15.77;3.50;;;9.80;81.10;;;;;;5054542;28;20137;-78
2023/03/25 02:43:15;;;;;;;13.18;2.97;;;9.80;81.10;;;;;;4969899;28;20035;-78
2023/03/25 02:45:52;;;;;;;14.18;3.08;;;9.80;81.10;;;;;;5053181;28;20124;-78
2023/03/25 02:48:41;;;;;;;12.27;3.35;;;9.80;81.10;;;;;;4986951;28;20034;-78
2023/03/25 02:51:16;;;;;;;11.75;3.38;;;9.80;81.00;;;;;;4989125;28;20370;-78
2023/03/25 02:53:45;;;;;;;18.50;3.25;;;9.80;81.00;;;;;;4989658;28;20371;-78
2023/03/25 02:56:15;;;;;;;13.20;2.50;;;9.80;81.00;;;;;;5008648;28;20113;-77
2023/03/25 02:58:44;;;;;;;13.95;2.88;;;9.80;81.00;;;;;;5054633;28;20036;-78
2023/03/25 03:01:13;;;;;;;14.95;2.67;;;9.90;81.10;;;;;;4963324;28;20440;-77
2023/03/25 03:03:40;;;;;;;11.00;2.67;;;9.80;81.00;;;;;;4946754;28;20043;-78
2023/03/25 03:06:07;;;;;;;17.15;2.92;;;9.90;81.10;;;;;;4953359;28;20536;-78
2023/03/25 03:08:50;;;;;;;15.35;2.78;;;9.90;81.10;;;;;;4953208;28;20511;-77
2023/03/25 03:11:20;;;;;;;16.00;2.45;;;9.90;81.20;;;;;;4971458;28;20125;-78
2023/03/25 03:13:57;;;;;;;10.20;2.25;;;9.90;81.10;;;;;;4973071;28;20039;-77
2023/03/25 03:16:38;;;;;;;18.00;2.97;;;9.90;81.10;;;;;;4962934;28;20384;-78
2023/03/25 03:19:22;;;;;;;17.77;2.95;;;9.90;81.10;;;;;;4973962;28;20043;-77
2023/03/25 03:22:26;;;;;;;16.25;3.15;;;9.90;81.10;;;;;;5054571;28;20036;-77
2023/03/25 03:25:12;;;;;;;11.20;2.42;;;9.90;81.00;;;;;;4974887;28;20509;-77
2023/03/25 03:27:53;;;;;;;15.90;4.10;;;9.90;81.00;;;;;;4953319;28;20133;-78
2023/03/25 03:30:37;;;;;;;13.35;3.15;;;9.90;81.00;;;;;;4969359;28;20039;-78
2023/03/25 03:33:35;;;;;;;14.48;2.90;;;9.90;81.00;;;;;;4968831;28;20035;-78
2023/03/25 03:36:14;;;;;;;12.50;2.85;;;9.90;80.80;;;;;;5010723;28;20048;-78
2023/03/25 03:38:46;;;;;;;14.07;3.00;;;9.90;80.90;;;;;;5053537;28;20052;-78
2023/03/25 03:41:18;;;;;;;16.13;2.72;;;9.90;80.90;;;;;;5040727;28;20482;-78
2023/03/25 03:44:06;;;;;;;16.13;3.10;;;9.90;80.90;;;;;;4952876;28;20061;-78
2023/03/25 03:46:42;;;;;;;11.85;3.33;;;9.90;80.90;;;;;;5001477;28;20048;-78
2023/03/25 03:49:17;;;;;;;13.93;2.85;;;9.90;81.40;;;;;;4999601;28;20054;-78
2023/03/25 03:51:52;;;;;;;13.13;3.20;;;9.90;81.10;;;;;;4965882;28;20074;-78
2023/03/25 03:54:22;;;;;;;14.32;3.35;;;9.80;81.20;;;;;;4964210;28;20058;-78
2023/03/25 03:57:07;;;;;;;18.75;3.70;;;9.80;81.10;;;;;;4968785;28;20039;-78
2023/03/25 03:59:56;;;;;;;14.27;3.28;;;9.90;81.20;;;;;;4966861;28;20048;-78
2023/03/25 04:02:37;;;;;;;14.75;3.60;;;9.90;81.20;;;;;;5070508;28;20045;-78
2023/03/25 04:05:05;;;;;;;13.40;4.10;;;9.80;81.30;;;;;;5070654;28;20044;-78
2023/03/25 04:07:55;;;;;;;11.68;2.85;;;9.80;81.30;;;;;;5060646;28;20149;-78
2023/03/25 04:10:38;;;;;;;10.18;2.70;;;9.80;81.30;;;;;;4953039;28;20127;-78
2023/03/25 04:13:10;;;;;;;13.98;3.55;;;9.80;81.30;;;;;;4952517;28;20508;-78
2023/03/25 04:15:36;;;;;;;13.05;2.83;;;9.80;81.50;;;;;;4968890;28;20046;-78
2023/03/25 04:18:03;;;;;;;14.10;3.85;;;9.80;81.60;;;;;;4936641;28;20050;-78
2023/03/25 04:20:32;;;;;;;14.73;4.15;;;9.80;81.70;;;;;;4936855;28;20039;-78
2023/03/25 04:22:59;;;;;;;19.02;3.67;;;9.80;81.90;;;;;;4953585;28;20089;-78
2023/03/25 04:25:25;;;;;;;16.73;4.15;;;9.80;81.90;;;;;;5036609;28;20042;-78
2023/03/25 04:27:52;;;;;;;13.63;3.95;;;9.80;81.90;;;;;;5053372;28;20043;-78
2023/03/25 04:30:19;;;;;;;13.57;4.50;;;9.80;81.90;;;;;;5036869;28;20371;-78
2023/03/25 04:32:46;;;;;;;22.58;4.40;;;9.80;82.10;;;;;;5038484;28;20041;-78
2023/03/25 04:35:13;;;;;;;14.23;3.83;;;9.80;82.10;;;;;;4981979;28;20405;-78
2023/03/25 04:37:40;;;;;;;21.63;5.13;;;9.80;82.10;;;;;;4969758;28;20042;-77
2023/03/25 04:40:08;;;;;;;20.65;3.90;;;9.80;82.10;;;;;;4968663;28;20043;-78
2023/03/25 04:42:36;;;;;;;12.45;3.22;;;9.80;82.20;;;;;;5036291;28;20548;-78
2023/03/25 04:45:04;;;;;;;13.98;4.18;;;9.80;82.30;;;;;;5018128;28;20043;-78
2023/03/25 04:47:31;;;;;;;19.88;3.70;;;9.80;82.30;;;;;;5021329;28;20098;-77
2023/03/25 04:49:56;;;;;;;15.80;4.13;;;9.80;82.30;;;;;;4998231;28;20367;-78
2023/03/25 04:52:22;;;;;;;18.38;3.95;;;9.80;82.30;;;;;;4952202;28;20125;-78
2023/03/25 04:54:48;;;;;;;18.17;3.80;;;9.80;82.40;;;;;;4952551;28;20039;-78
2023/03/25 04:57:14;;;;;;;23.10;4.97;;;9.80;82.30;;;;;;5056052;28;20470;-79
2023/03/25 04:59:39;;;;;;;17.15;4.25;;;9.80;82.30;;;;;;4941825;28;20050;-78
2023/03/25 05:02:11;;;;;;;19.38;4.60;;;9.80;82.30;;;;;;4971446;28;20050;-78
2023/03/25 05:04:40;;;;;;;15.93;3.65;;;9.80;82.30;;;;;;4968214;28;20043;-78
2023/03/25 05:07:07;;;;;;;15.25;4.00;;;9.80;82.20;;;;;;4958513;28;20042;-78
2023/03/25 05:09:32;;;;;;;17.98;3.70;;;9.80;82.20;;;;;;4979362;28;20045;-78
2023/03/25 05:11:58;;;;;;;20.17;4.47;;;9.70;82.20;;;;;;5057322;28;20047;-78
2023/03/25 05:14:24;;;;;;;17.98;3.95;;;9.80;82.20;;;;;;4953888;28;20031;-78
2023/03/25 05:16:50;;;;;;;14.52;3.60;;;9.80;82.30;;;;;;5039567;28;20040;-78
2023/03/25 05:19:17;;;;;;;19.63;3.95;;;9.70;82.20;;;;;;5030110;28;20057;-78
2023/03/25 05:21:43;;;;;;;16.98;4.32;;;9.80;82.20;;;;;;4987216;28;20042;-78
2023/03/25 05:24:12;;;;;;;21.52;3.78;;;9.70;82.20;;;;;;5055670;28;20048;-78
2023/03/25 05:26:39;;;;;;;20.70;4.05;;;9.70;82.20;;;;;;4962341;28;20039;-78
2023/03/25 05:29:12;;;;;;;17.98;3.58;;;9.80;82.20;;;;;;4954493;28;20042;-78
2023/03/25 05:31:40;;;;;;;17.85;3.53;;;9.70;82.20;;;;;;4971193;28;20042;-78
2023/03/25 05:34:07;;;;;;;16.08;3.58;;;9.70;82.10;;;;;;4990322;28;20049;-78
2023/03/25 05:36:33;;;;;;;21.58;3.85;;;9.70;82.10;;;;;;4973989;28;20042;-78
2023/03/25 05:38:59;;;;;;;15.65;4.22;;;9.70;82.10;;;;;;5027969;28;20043;-78
2023/03/25 05:41:37;;;;;;;16.88;4.18;;;9.70;82.10;;;;;;4954799;28;20088;-78
2023/03/25 05:44:05;;;;;;;16.23;3.97;;;9.70;82.10;;;;;;5032802;28;20057;-78
2023/03/25 05:46:30;;;;;;;15.52;3.92;;;9.70;82.20;;;;;;4990922;28;20069;-78
2023/03/25 05:48:56;;;;;;;14.23;3.92;;;9.70;82.20;;;;;;5038784;28;20078;-78
2023/03/25 05:51:24;;;;;;;23.17;5.40;;;9.70;82.20;;;;;;4954038;28;20460;-78
2023/03/25 05:53:50;;;;;;;15.60;4.22;;;9.70;82.30;;;;;;4968795;28;20067;-79
2023/03/25 05:56:20;;;;;;;18.30;3.83;;;9.70;82.30;;;;;;5072205;28;20032;-78
2023/03/25 05:58:48;;;;;;;16.02;4.32;;;9.70;82.40;;;;;;4983789;28;20065;-78
2023/03/25 06:01:15;;;;;;;15.57;3.63;;;9.70;82.40;;;;;;5067979;28;20036;-78
2023/03/25 06:03:42;;;;;;;18.88;3.80;;;9.70;82.30;;;;;;5005101;28;20088;-78
2023/03/25 06:06:17;;;;;;;11.48;2.90;;;9.70;82.30;;;;;;5003232;28;20050;-78
2023/03/25 06:08:48;;;;;;;19.15;4.07;;;9.70;82.30;;;;;;4971794;28;20117;-78
2023/03/25 06:11:15;;;;;;;17.10;4.45;;;9.70;82.30;;;;;;4987567;28;20382;-77
2023/03/25 06:13:48;;;;;;;12.23;3.40;;;9.70;82.30;;;;;;4970254;28;20035;-78
2023/03/25 06:16:17;;;;;;;19.80;3.65;;;9.70;82.30;;;;;;5015865;28;20622;-78
2023/03/25 06:18:49;;;;;;;13.30;2.92;;;9.70;82.30;;;;;;5055444;28;20508;-78
2023/03/25 06:21:18;;;;;;;17.48;4.07;;;9.70;82.00;;;;;;4993680;28;20070;-78
2023/03/25 06:23:44;;;;;;;20.33;4.18;;;9.70;81.90;;;;;;4970828;28;20129;-77
2023/03/25 06:26:10;;;;;;;16.02;3.78;;;9.70;81.90;;;;;;4954214;28;20095;-78
2023/03/25 06:28:36;;;;;;;20.83;4.10;;;9.70;81.80;;;;;;5040461;28;20034;-78
2023/03/25 06:31:05;;;;;;;17.08;3.95;;;9.70;81.80;;;;;;5055918;28;20044;-78
2023/03/25 06:33:31;;;;;;;16.70;3.50;;;9.70;81.80;;;;;;5020160;28;20089;-78
2023/03/25 06:35:57;;;;;;;27.80;5.07;;;9.70;81.90;;;;;;4953821;28;20043;-79
2023/03/25 06:38:23;;;;;;;16.33;3.17;;;9.70;81.90;;;;;;4970026;28;20355;-78
2023/03/25 06:40:49;;;;;;;15.00;3.25;;;9.70;81.90;;;;;;5054772;28;20043;-78
2023/03/25 06:43:15;;;;;;;15.77;3.85;;;9.70;82.00;;;;;;5020847;28;20057;-78
2023/03/25 06:45:40;;;;;;;25.92;4.60;;;9.70;82.00;;;;;;5054614;28;20054;-77
2023/03/25 06:48:07;;;;;;;20.02;4.03;;;9.80;82.00;;;;;;4938185;28;20047;-77
2023/03/25 06:50:33;;;;;;;18.77;4.07;;;9.80;81.90;;;;;;4937075;28;20051;-78
2023/03/25 06:52:58;;;;;;;20.08;4.85;;;9.80;81.80;;;;;;4937965;28;20043;-79
2023/03/25 06:55:24;;;;;;;17.98;4.47;;;9.80;81.90;;;;;;4981769;28;20470;-79
2023/03/25 06:57:54;;;;;;;26.95;5.85;;;9.80;81.80;;;;;;5045589;28;20119;-77
2023/03/25 07:00:22;;;;;;;20.70;4.20;;;9.80;81.80;;;;;;5059878;28;20036;-77
2023/03/25 07:02:48;;;;;;;18.67;3.92;;;9.80;81.50;;;;;;5029194;28;20035;-78
2023/03/25 07:05:14;;;;;;;17.10;4.20;;;9.90;81.30;;;;;;4995993;28;20029;-78
2023/03/25 07:07:40;;;;;;;24.27;4.20;;;9.80;81.10;;;;;;5064756;28;20128;-79
2023/03/25 07:10:06;;;;;;;17.42;3.78;;;9.80;80.80;;;;;;5007537;28;20050;-78
2023/03/25 07:12:34;;;;;;;22.67;4.85;;;9.90;80.80;;;;;;4951686;28;20035;-79
2023/03/25 07:15:00;;;;;;;25.55;4.25;;;9.90;80.90;;;;;;4954623;28;20039;-78
2023/03/25 07:17:25;;;;;;;18.55;4.43;;;10.00;81.00;;;;;;4938393;28;20525;-80
2023/03/25 07:19:51;;;;;;;20.58;3.45;;;9.90;80.70;;;;;;4954184;28;20043;-79
2023/03/25 07:22:17;;;;;;;21.05;3.80;;;10.00;80.60;;;;;;4953814;28;20074;-79
2023/03/25 07:24:43;;;;;;;17.92;3.45;;;10.00;80.50;;;;;;4987497;28;20047;-76
2023/03/25 07:27:11;;;;;;;16.98;3.38;;;10.00;80.50;;;;;;5044001;28;20455;-79
2023/03/25 07:29:37;;;;;;;22.13;3.88;;;10.00;80.50;;;;;;4975823;28;20126;-79
2023/03/25 07:32:03;;;;;;;18.75;3.47;;;10.00;80.50;;;;;;5021448;28;20092;-79
2023/03/25 07:34:29;;;;;;;17.23;3.47;;;10.00;80.40;;;;;;4975587;28;20116;-79
2023/03/25 07:36:55;;;;;;;15.70;3.38;;;9.90;80.40;;;;;;4984432;28;20049;-80
2023/03/25 07:39:23;;;;;;;19.55;4.15;;;9.90;80.40;;;;;;4972637;28;20042;-78
2023/03/25 07:41:53;;;;;;;20.65;4.15;;;9.90;80.70;;;;;;4970585;28;20054;-78
2023/03/25 07:44:20;;;;;;;20.35;3.15;;;9.80;80.90;;;;;;4938748;28;20490;-78
2023/03/25 07:46:46;;;;;;;16.75;3.20;;;9.80;81.00;;;;;;4970232;28;20039;-78
2023/03/25 07:49:13;;;;;;;15.95;3.33;;;9.80;81.10;;;;;;5021140;28;20089;-78
2023/03/25 07:51:39;;;;;;;11.70;2.55;;;9.80;81.20;;;;;;4970089;28;20125;-79
2023/03/25 07:54:04;;;;;;;18.25;3.60;;;9.80;81.30;;;;;;5037816;28;20060;-78
2023/03/25 07:56:30;;;;;;;19.02;3.42;;;9.80;81.40;;;;;;4938077;28;20133;-78
2023/03/25 07:58:56;;;;;;;17.83;3.33;;;9.80;81.50;;;;;;4937830;28;20539;-78
2023/03/25 08:01:21;;;;;;;20.33;3.72;;;9.80;81.70;;;;;;4937694;28;20553;-78
2023/03/25 08:03:47;;;;;;;22.23;4.38;;;9.80;81.80;;;;;;4937738;28;20066;-78
2023/03/25 08:06:13;;;;;;;13.55;4.20;;;9.80;82.00;;;;;;4953815;28;20043;-78
2023/03/25 08:08:39;;;;;;;27.25;4.53;;;9.80;82.00;;;;;;5021325;28;20093;-78
2023/03/25 08:11:05;;;;;;;20.02;4.53;;;9.80;82.10;;;;;;5020663;28;20059;-78
2023/03/25 08:13:30;;;;;;;14.40;2.97;;;9.80;82.10;;;;;;4937635;28;20122;-78
2023/03/25 08:15:57;;;;;;;20.10;3.53;;;9.80;82.10;;;;;;5054370;28;20126;-77
2023/03/25 08:18:23;;;;;;;23.42;4.13;;;9.80;82.20;;;;;;4953537;28;20043;-78
2023/03/25 08:20:52;;;;;;;20.40;4.10;;;9.80;82.10;;;;;;4937366;28;20073;-78
2023/03/25 08:23:18;;;;;;;21.38;3.97;;;9.90;82.30;;;;;;4937486;28;20046;-78
2023/03/25 08:25:49;;;;;;;23.90;3.53;;;9.90;82.10;;;;;;4952908;28;20556;-78
2023/03/25 08:28:21;;;;;;;21.20;4.30;;;10.00;82.00;;;;;;4968984;28;20436;-78
2023/03/25 08:30:48;;;;;;;20.65;4.53;;;10.00;81.70;;;;;;4953788;28;20195;-78
2023/03/25 08:33:15;;;;;;;11.65;2.85;;;10.00;81.50;;;;;;4956365;28;20043;-78
2023/03/25 08:35:41;;;;;;;21.15;3.92;;;10.00;81.30;;;;;;4940272;28;20054;-79
2023/03/25 08:38:07;;;;;;;20.05;3.92;;;10.10;81.30;;;;;;5040753;28;20035;-78
2023/03/25 08:40:36;;;;;;;20.08;4.13;;;10.10;81.20;;;;;;4972217;28;20093;-78
2023/03/25 08:43:06;;;;;;;18.38;3.50;;;10.10;81.20;;;;;;4940296;28;20058;-77
2023/03/25 08:45:33;;;;;;;21.63;3.40;;;10.10;81.00;;;;;;4956195;28;20417;-78
2023/03/25 08:48:00;;;;;;;24.73;4.78;;;10.20;80.90;;;;;;4956014;28;20129;-79
2023/03/25 08:50:26;;;;;;;17.58;3.40;;;10.30;81.40;;;;;;4972454;28;20051;-79
2023/03/25 08:52:53;;;;;;;23.00;4.13;;;10.30;81.10;;;;;;4940921;28;20069;-79
2023/03/25 08:55:19;;;;;;;16.20;3.53;;;10.40;80.90;;;;;;4941174;28;20035;-80
2023/03/25 08:57:45;;;;;;;16.48;3.40;;;10.50;80.30;;;;;;4957738;28;20100;-79
2023/03/25 09:00:12;;;;;;;13.13;2.85;;;10.50;79.80;;;;;;4972344;28;20476;-80
2023/03/25 09:02:37;;;;;;;19.73;5.20;;;10.60;79.50;;;;;;4956150;28;20043;-79
2023/03/25 09:05:04;;;;;;;14.02;3.20;;;10.60;79.50;;;;;;5040472;28;20092;-79
2023/03/25 09:07:30;;;;;;;15.85;3.55;;;10.60;79.70;;;;;;4956201;28;20043;-80
2023/03/25 09:09:56;;;;;;;21.00;4.25;;;10.70;79.80;;;;;;4971544;28;20050;-80
2023/03/25 09:12:22;;;;;;;17.05;3.50;;;10.80;79.30;;;;;;4939677;28;20406;-80
2023/03/25 09:14:47;;;;;;;18.60;3.13;;;10.90;79.30;;;;;;4939739;28;20047;-79
2023/03/25 09:17:13;;;;;;;15.00;3.35;;;11.00;79.10;;;;;;4955314;28;20134;-80
2023/03/25 09:19:39;;;;;;;14.95;3.00;;;11.00;78.60;;;;;;4955826;28;20145;-80
2023/03/25 09:22:05;;;;;;;15.88;3.65;;;11.10;78.00;;;;;;4971046;28;20426;-77
2023/03/25 09:24:32;;;;;;;16.45;3.17;;;11.10;77.80;;;;;;4971766;28;20149;-79
2023/03/25 09:27:00;;;;;;;15.13;3.08;;;11.10;77.80;;;;;;4940004;28;20057;-78
2023/03/25 09:29:26;;;;;;;24.08;4.60;;;11.10;77.60;;;;;;4971848;28;20053;-78
2023/03/25 09:31:53;;;;;;;15.57;3.55;;;11.10;77.40;;;;;;4941700;28;20112;-78
2023/03/25 09:34:18;;;;;;;13.07;3.13;;;11.10;77.00;;;;;;4977047;28;20462;-78
2023/03/25 09:36:44;;;;;;;14.77;2.88;;;11.10;77.50;;;;;;5062389;28;20046;-78
2023/03/25 09:39:10;;;;;;;17.55;3.75;;;11.10;77.00;;;;;;5045903;28;20452;-77
2023/03/25 09:41:45;;;;;;;17.13;3.13;;;11.10;77.00;;;;;;4961601;28;20492;-79
2023/03/25 09:44:46;;;;;;;17.13;3.83;;;11.10;77.00;;;;;;4960676;28;20054;-78
2023/03/25 09:47:14;;;;;;;17.23;4.00;;;11.10;76.80;;;;;;4957194;28;20038;-79
2023/03/25 09:49:44;;;;;;;15.48;3.50;;;11.10;77.00;;;;;;4939909;28;20083;-78
2023/03/25 09:52:19;;;;;;;21.75;4.40;;;11.00;76.80;;;;;;4955631;28;20495;-79
2023/03/25 09:54:52;;;;;;;17.70;3.22;;;11.10;76.80;;;;;;4955955;28;20081;-79
2023/03/25 09:57:26;;;;;;;17.33;3.50;;;11.10;76.50;;;;;;4955704;28;20440;-78
2023/03/25 09:59:53;;;;;;;18.90;3.53;;;11.10;76.30;;;;;;4955195;28;20046;-77
2023/03/25 10:02:51;;;;;;;15.98;3.38;;;11.10;76.10;;;;;;5022917;28;20638;-79
2023/03/25 10:05:45;;;;;;;16.00;3.50;;;11.10;75.90;;;;;;4983806;28;20050;-79
2023/03/25 10:08:20;;;;;;;17.05;2.90;;;11.10;75.90;;;;;;4935450;28;20126;-79
2023/03/25 10:10:58;;;;;;;15.95;3.38;;;11.10;76.20;;;;;;4936463;29;20488;-79
2023/03/25 10:13:27;;;;;;;17.23;2.85;;;11.10;76.20;;;;;;4935771;28;20039;-78
2023/03/25 10:16:00;;;;;;;13.32;2.83;;;11.10;76.00;;;;;;4986266;28;20578;-78
2023/03/25 10:18:58;;;;;;;14.93;3.10;;;11.10;75.80;;;;;;4970456;28;20089;-78
2023/03/25 10:21:54;;;;;;;15.30;2.90;;;11.10;75.50;;;;;;4971080;28;20066;-78
2023/03/25 10:24:22;;;;;;;19.00;3.40;;;11.10;75.10;;;;;;4954893;28;20093;-79
2023/03/25 10:27:00;;;;;;;14.68;3.88;;;11.10;75.60;;;;;;4970841;28;20137;-79
2023/03/25 10:29:58;;;;;;;13.93;3.40;;;11.10;75.60;;;;;;4970655;28;20055;-79
2023/03/25 10:32:38;;;;;;;14.23;3.08;;;11.10;75.80;;;;;;4973538;28;20137;-77
2023/03/25 10:35:10;;;;;;;14.10;2.97;;;11.10;75.90;;;;;;4954168;28;20135;-79
2023/03/25 10:37:40;;;;;;;12.48;2.83;;;11.20;75.80;;;;;;4970709;28;20492;-79
2023/03/25 10:40:15;;;;;;;17.73;3.35;;;11.20;76.00;;;;;;4954474;28;20367;-78
2023/03/25 10:43:05;;;;;;;17.85;3.55;;;11.30;75.90;;;;;;4970085;28;20097;-79
2023/03/25 10:45:32;;;;;;;15.38;3.28;;;11.30;75.40;;;;;;4970086;28;20046;-78
2023/03/25 10:48:19;;;;;;;15.07;3.95;;;11.30;75.30;;;;;;4953917;28;20038;-78
2023/03/25 10:50:46;;;;;;;20.05;3.95;;;11.40;75.10;;;;;;4953897;28;20069;-78
2023/03/25 10:53:24;;;;;;;12.85;3.55;;;11.40;75.30;;;;;;4953238;28;20462;-78
2023/03/25 10:55:57;;;;;;;19.17;3.60;;;11.50;75.00;;;;;;4969906;28;20434;-78
2023/03/25 10:58:24;;;;;;;17.85;4.45;;;11.50;74.80;;;;;;4953885;28;20137;-78
2023/03/25 11:00:50;;;;;;;13.07;2.72;;;11.50;74.60;;;;;;4969763;28;20389;-77
2023/03/25 11:03:31;;;;;;;15.63;3.30;;;11.50;73.80;;;;;;4937702;28;20108;-77
2023/03/25 11:05:57;;;;;;;24.60;5.03;;;11.50;73.40;;;;;;4969984;28;20134;-77
2023/03/25 11:08:24;;;;;;;15.35;3.53;;;11.50;73.20;;;;;;4953832;28;20042;-77
2023/03/25 11:10:55;;;;;;;12.30;2.70;;;11.50;73.40;;;;;;4953306;28;20031;-78
2023/03/25 11:13:29;;;;;;;20.90;3.85;;;11.50;73.60;;;;;;4953162;28;20519;-78
2023/03/25 11:15:58;;;;;;;14.82;3.72;;;11.50;73.60;;;;;;4950074;28;20403;-78
2023/03/25 11:18:35;;;;;;;17.95;4.40;;;11.50;73.40;;;;;;4953664;28;20046;-78
2023/03/25 11:21:09;;;;;;;15.05;3.25;;;11.60;73.60;;;;;;4953388;28;20126;-77
2023/03/25 11:23:37;;;;;;;18.48;3.40;;;11.60;73.20;;;;;;4953706;28;20402;-78
2023/03/25 11:26:36;;;;;;;13.80;2.63;;;11.60;73.10;;;;;;4953282;28;20043;-77
2023/03/25 11:29:10;;;;;;;17.40;4.82;;;11.70;72.60;;;;;;4942786;28;20047;-78
2023/03/25 11:31:37;;;;;;;14.48;3.13;;;11.80;72.40;;;;;;4969377;28;20045;-78
2023/03/25 11:34:18;;;;;;;16.83;3.28;;;11.80;72.60;;;;;;4937567;28;20042;-78
2023/03/25 11:36:58;;;;;;;14.27;2.85;;;11.90;72.20;;;;;;4953367;28;20035;-78
2023/03/25 11:39:30;;;;;;;16.25;3.03;;;11.90;71.70;;;;;;4953487;28;20453;-79
2023/03/25 11:41:57;;;;;;;14.13;2.70;;;12.00;71.90;;;;;;4969690;28;20374;-78
2023/03/25 11:44:31;;;;;;;17.23;3.60;;;12.00;71.80;;;;;;4968733;28;20053;-78
2023/03/25 11:47:00;;;;;;;;;;;12.10;71.40;;;;;;4937776;28;20474;-79
2023/03/25 11:49:28;;;;;;;14.80;3.03;;;12.10;71.50;;;;;;4968853;28;19922;-78
2023/03/25 11:52:01;;;;;;;14.85;3.17;;;12.20;71.90;;;;;;4953130;28;20129;-77
2023/03/25 11:54:28;;;;;;;13.90;3.97;;;12.30;71.30;;;;;;4968891;28;20244;-78
2023/03/25 11:56:55;;;;;;;14.80;3.35;;;12.30;71.40;;;;;;4936918;28;20366;-78
2023/03/25 11:59:36;;;;;;;16.73;4.10;;;12.40;71.00;;;;;;4952782;28;20074;-78
2023/03/25 12:02:22;;;;;;;12.63;3.47;;;12.50;70.50;;;;;;4954241;28;20049;-77
2023/03/25 12:05:00;;;;;;;15.00;3.22;;;12.50;69.30;;;;;;4969945;28;20376;-78
2023/03/25 12:07:26;;;;;;;12.57;2.85;;;12.60;69.30;;;;;;4972345;28;20502;-78
2023/03/25 12:10:04;;;;;;;12.68;2.90;;;12.60;69.00;;;;;;4972219;28;20045;-77
2023/03/25 12:13:06;;;;;;;18.13;3.78;;;12.60;68.40;;;;;;4956744;28;20386;-78
2023/03/25 12:15:59;;;;;;;11.88;3.08;;;12.50;68.90;;;;;;4985790;28;20387;-78
2023/03/25 12:19:02;;;;;;;19.98;4.13;;;12.50;69.50;;;;;;4956231;28;20614;-78
2023/03/25 12:21:41;;;;;;;18.73;3.42;;;12.50;69.70;;;;;;4956459;28;20053;-77
2023/03/25 12:24:27;;;;;;;14.55;2.92;;;12.50;69.70;;;;;;4956792;28;20103;-77
2023/03/25 12:27:17;;;;;;;13.02;3.35;;;12.60;68.80;;;;;;4972740;28;20047;-78
2023/03/25 12:29:57;;;;;;;14.73;3.05;;;12.60;68.40;;;;;;4956683;28;20437;-79
2023/03/25 12:32:52;;;;;;;16.13;3.38;;;12.70;67.70;;;;;;4956484;28;20043;-79
2023/03/25 12:35:33;;;;;;;13.95;2.85;;;12.70;67.60;;;;;;4970295;28;20054;-79
2023/03/25 12:38:02;;;;;;;13.32;3.08;;;12.60;67.90;;;;;;4957052;28;20065;-78
2023/03/25 12:41:05;;;;;;;13.55;2.40;;;12.60;68.00;;;;;;4971997;28;20092;-79
2023/03/25 12:44:07;;;;;;;15.15;3.53;;;12.60;67.40;;;;;;4956783;28;20066;-79
2023/03/25 12:46:54;;;;;;;13.30;3.00;;;12.60;67.90;;;;;;5074448;28;20506;-77
2023/03/25 12:49:41;;;;;;;17.35;4.07;;;12.60;67.40;;;;;;4989313;28;20384;-79
2023/03/25 12:52:23;;;;;;;12.40;2.67;;;12.60;68.10;;;;;;4988574;28;20046;-78
2023/03/25 12:55:03;;;;;;;15.73;2.83;;;12.60;67.50;;;;;;4997831;28;20042;-78
2023/03/25 12:57:46;;;;;;;11.43;2.97;;;12.70;67.40;;;;;;5037467;28;20072;-79
2023/03/25 13:00:41;;;;;;;13.63;3.13;;;12.70;67.10;;;;;;5037127;28;20041;-79
2023/03/25 13:03:32;;;;;;;10.45;2.83;;;12.70;67.20;;;;;;5051869;28;20049;-79
2023/03/25 13:06:04;;;;;;;12.77;2.85;;;12.70;66.20;;;;;;5070443;28;20425;-79